TimeCST,TemperatureF,Dew PointF,Humidity,Sea Level PressureIn,VisibilityMPH,Wind Direction,Wind SpeedMPH,Gust SpeedMPH,PrecipitationIn,Events,Conditions,WindDirDegrees,DateUTC
12:15 AM,33.3,32.2,96,30.12,4.0,ESE,3.5,-,N/A,,Clear,110,2012-11-09 06:15:00
12:35 AM,33.4,32.9,98,30.11,4.0,SE,3.5,-,N/A,,Clear,130,2012-11-09 06:35:00
12:55 AM,32.9,32.4,98,30.12,3.0,Calm,Calm,-,N/A,,Clear,0,2012-11-09 06:55:00
1:15 AM,33.3,32.5,97,30.13,3.0,Calm,Calm,-,N/A,,Clear,0,2012-11-09 07:15:00
1:35 AM,32.7,32.4,99,30.13,3.0,East,3.5,-,N/A,,Clear,100,2012-11-09 07:35:00
1:55 AM,32.2,32.0,99,30.13,2.5,ESE,3.5,-,N/A,,Clear,110,2012-11-09 07:55:00
2:15 AM,33.3,32.9,99,30.13,3.0,SE,4.6,-,N/A,,Clear,130,2012-11-09 08:15:00
2:35 AM,33.6,32.9,97,30.12,3.0,SE,4.6,-,N/A,,Clear,130,2012-11-09 08:35:00
2:55 AM,34.0,33.3,97,30.12,3.0,SE,5.8,-,N/A,,Clear,130,2012-11-09 08:55:00
3:15 AM,34.2,33.3,97,30.11,3.0,ESE,6.9,-,N/A,,Clear,120,2012-11-09 09:15:00
3:35 AM,34.2,33.3,97,30.11,3.0,ESE,5.8,-,N/A,,Clear,120,2012-11-09 09:35:00
3:55 AM,34.0,33.3,97,30.12,3.0,ESE,4.6,-,N/A,,Clear,120,2012-11-09 09:55:00
4:15 AM,34.7,33.6,96,30.11,3.0,ESE,6.9,-,N/A,,Clear,120,2012-11-09 10:15:00
4:35 AM,34.7,33.8,97,30.11,3.0,SE,5.8,-,N/A,,Clear,130,2012-11-09 10:35:00
4:55 AM,34.9,33.8,96,30.11,4.0,SE,6.9,-,N/A,,Clear,130,2012-11-09 10:55:00
5:15 AM,35.1,34.0,96,30.11,4.0,SE,5.8,-,N/A,,Clear,130,2012-11-09 11:15:00
5:35 AM,35.6,33.8,93,30.10,4.0,SE,5.8,-,N/A,,Clear,130,2012-11-09 11:35:00
5:55 AM,34.9,33.8,96,30.10,4.0,SE,4.6,-,N/A,,Clear,130,2012-11-09 11:55:00
6:15 AM,34.7,33.8,97,30.10,4.0,SE,6.9,-,N/A,,Clear,130,2012-11-09 12:15:00
6:35 AM,35.1,34.0,96,30.10,2.5,SE,6.9,-,N/A,,Clear,140,2012-11-09 12:35:00
6:55 AM,35.8,34.3,94,30.11,3.0,SE,5.8,-,N/A,,Clear,140,2012-11-09 12:55:00
7:15 AM,37.4,35.2,92,30.11,4.0,SE,8.1,-,N/A,,Clear,140,2012-11-09 13:15:00
7:35 AM,39.7,36.5,88,30.12,3.0,SSE,8.1,-,N/A,,Scattered Clouds,160,2012-11-09 13:35:00
7:55 AM,41.9,37.8,85,30.11,5.0,SSE,8.1,-,N/A,,Scattered Clouds,150,2012-11-09 13:55:00
8:15 AM,42.6,38.1,84,30.10,7.0,SSE,10.4,-,N/A,,Mostly Cloudy,160,2012-11-09 14:15:00
8:35 AM,44.6,39.2,81,30.10,7.0,South,8.1,-,N/A,,Scattered Clouds,170,2012-11-09 14:35:00
8:55 AM,46.6,40.5,79,30.09,7.0,SSE,8.1,-,N/A,,Clear,160,2012-11-09 14:55:00
9:15 AM,48.6,41.7,77,30.08,7.0,South,9.2,-,N/A,,Clear,170,2012-11-09 15:15:00
9:35 AM,50.2,42.6,75,30.08,10.0,South,13.8,18.4,N/A,,Clear,170,2012-11-09 15:35:00
9:55 AM,50.9,42.3,72,30.08,10.0,South,12.7,17.3,N/A,,Clear,180,2012-11-09 15:55:00
10:15 AM,52.0,42.8,71,30.07,10.0,South,13.8,19.6,N/A,,Clear,170,2012-11-09 16:15:00
10:35 AM,53.2,43.9,71,30.07,10.0,South,12.7,-,N/A,,Clear,180,2012-11-09 16:35:00
10:55 AM,54.1,43.9,68,30.07,10.0,South,11.5,-,N/A,,Clear,190,2012-11-09 16:55:00
11:15 AM,54.9,44.1,67,30.06,10.0,South,13.8,-,N/A,,Clear,180,2012-11-09 17:15:00
11:35 AM,56.3,44.8,65,30.06,10.0,South,10.4,-,N/A,,Clear,180,2012-11-09 17:35:00
11:55 AM,56.8,44.8,64,30.04,10.0,SSE,10.4,-,N/A,,Clear,160,2012-11-09 17:55:00
12:15 PM,57.9,45.5,63,30.03,10.0,SSE,11.5,-,N/A,,Clear,160,2012-11-09 18:15:00
12:35 PM,58.3,45.3,62,30.03,10.0,SSE,9.2,-,N/A,,Clear,160,2012-11-09 18:35:00
12:55 PM,57.9,45.7,64,30.03,10.0,SSW,9.2,-,N/A,,Mostly Cloudy,200,2012-11-09 18:55:00
1:15 PM,57.7,45.9,65,30.02,10.0,South,9.2,-,N/A,,Overcast,170,2012-11-09 19:15:00
1:35 PM,57.6,45.9,65,30.01,10.0,SE,8.1,-,N/A,,Overcast,140,2012-11-09 19:35:00
1:55 PM,58.5,46.4,64,30.00,10.0,SE,10.4,-,N/A,,Overcast,140,2012-11-09 19:55:00
2:15 PM,58.5,46.2,64,29.99,10.0,SSE,9.2,-,N/A,,Overcast,150,2012-11-09 20:15:00
2:35 PM,59.2,46.9,64,29.99,10.0,SSE,10.4,-,N/A,,Overcast,150,2012-11-09 20:35:00
2:55 PM,58.3,46.4,65,29.99,10.0,SSE,10.4,-,N/A,,Scattered Clouds,150,2012-11-09 20:55:00
3:15 PM,58.3,46.6,65,29.99,10.0,SSE,10.4,-,N/A,,Clear,160,2012-11-09 21:15:00
3:35 PM,58.1,46.6,65,29.99,10.0,SSE,8.1,-,N/A,,Clear,150,2012-11-09 21:35:00
3:55 PM,57.4,46.8,68,29.99,10.0,SSE,6.9,-,N/A,,Clear,150,2012-11-09 21:55:00
4:15 PM,56.5,46.8,70,29.99,10.0,ESE,4.6,-,N/A,,Clear,120,2012-11-09 22:15:00
4:35 PM,54.5,46.4,74,29.99,10.0,ESE,4.6,-,N/A,,Clear,120,2012-11-09 22:35:00
4:55 PM,53.2,46.6,78,29.99,10.0,ESE,3.5,-,N/A,,Clear,120,2012-11-09 22:55:00
5:15 PM,52.7,46.4,79,30.00,10.0,ESE,4.6,-,N/A,,Clear,120,2012-11-09 23:15:00
5:35 PM,52.0,46.4,81,30.00,10.0,East,5.8,-,N/A,,Clear,100,2012-11-09 23:35:00
5:55 PM,52.2,46.6,81,30.00,10.0,ESE,4.6,-,N/A,,Mostly Cloudy,120,2012-11-09 23:55:00
6:15 PM,53.6,46.8,78,30.00,10.0,ESE,5.8,-,N/A,,Overcast,120,2012-11-10 00:15:00
6:35 PM,52.9,46.6,79,29.99,10.0,ESE,5.8,-,N/A,,Overcast,120,2012-11-10 00:35:00
6:55 PM,52.9,46.8,80,29.99,10.0,ESE,5.8,-,N/A,,Overcast,120,2012-11-10 00:55:00
7:15 PM,52.3,46.6,81,29.99,10.0,ESE,6.9,-,N/A,,Overcast,120,2012-11-10 01:15:00
7:35 PM,51.6,46.2,82,29.99,10.0,ESE,5.8,-,N/A,,Scattered Clouds,120,2012-11-10 01:35:00
7:55 PM,50.4,46.0,85,29.99,10.0,ESE,5.8,-,N/A,,Clear,120,2012-11-10 01:55:00
8:15 PM,50.0,45.5,85,29.99,10.0,ESE,4.6,-,N/A,,Clear,120,2012-11-10 02:15:00
8:35 PM,49.5,44.8,84,30.00,10.0,ESE,4.6,-,N/A,,Clear,120,2012-11-10 02:35:00
8:55 PM,49.1,44.6,84,30.00,10.0,SE,5.8,-,N/A,,Clear,130,2012-11-10 02:55:00
9:15 PM,48.9,44.4,84,30.00,10.0,SE,5.8,-,N/A,,Clear,130,2012-11-10 03:15:00
9:35 PM,48.6,44.1,84,30.00,10.0,SE,5.8,-,N/A,,Clear,130,2012-11-10 03:35:00
9:55 PM,48.4,43.7,84,30.00,10.0,SE,6.9,-,N/A,,Clear,130,2012-11-10 03:55:00
10:15 PM,48.6,43.7,83,30.00,10.0,SE,6.9,-,N/A,,Clear,130,2012-11-10 04:15:00
10:35 PM,49.1,43.7,82,30.00,10.0,SE,6.9,-,N/A,,Clear,130,2012-11-10 04:35:00
10:55 PM,47.1,43.2,86,30.00,10.0,ESE,5.8,-,N/A,,Clear,110,2012-11-10 04:55:00
11:15 PM,46.6,43.0,87,30.00,10.0,ESE,5.8,-,N/A,,Clear,120,2012-11-10 05:15:00
11:35 PM,46.6,43.2,88,30.00,10.0,ESE,6.9,-,N/A,,Clear,110,2012-11-10 05:35:00
11:55 PM,47.3,43.7,87,30.01,10.0,ESE,5.8,-,N/A,,Clear,110,2012-11-10 05:55:00